Time;durP1;ratioP1;P1;durP2;ratioP2;P2;SDS_P1;SDS_P2;PMS_P1;PMS_P2;Temp;Humidity;BMP_temperature;BMP_pressure;BME280_temperature;BME280_humidity;BME280_pressure;Samples;Min_cycle;Max_cycle;Signal;HPM_P1;HPM_P2
2022/01/25 00:08:38;;;;;;;65.63;9.23;;;;;;;;;;5034411;28;20191;-48
2022/01/25 00:24:49;;;;;;;60.37;8.43;;;;;;;;;;5036049;28;20280;-49
2022/01/25 00:27:39;;;;;;;96.20;12.60;;;;;;;;;;5034627;28;20254;-48
2022/01/25 00:30:24;;;;;;;82.13;11.00;;;;;;;;;;5036659;28;20257;-48
2022/01/25 00:32:50;;;;;;;141.53;18.40;;;;;;;;;;5038722;28;20204;-48
2022/01/25 00:35:16;;;;;;;64.13;8.80;;;;;;;;;;5031994;28;20182;-48
2022/01/25 00:37:42;;;;;;;71.57;9.67;;;;;;;;;;5032819;28;20180;-48
2022/01/25 00:40:09;;;;;;;160.10;20.63;;;;;;;;;;5032007;28;20188;-48
2022/01/25 00:42:34;;;;;;;101.40;13.53;;;;;;;;;;5031695;28;20187;-48
2022/01/25 00:45:00;;;;;;;72.73;9.90;;;;;;;;;;5029954;28;20187;-48
2022/01/25 00:47:26;;;;;;;62.70;8.70;;;;;;;;;;5033445;28;20241;-48
2022/01/25 00:49:53;;;;;;;74.73;10.10;;;;;;;;;;5027954;28;20207;-48
2022/01/25 00:53:53;;;;;;;82.67;11.23;;;;;;;;;;5035550;28;20504;-48
2022/01/25 00:55:10;;;;;;;131.13;16.90;;;;;;;;;;5033613;28;20184;-48
2022/01/25 00:57:36;;;;;;;73.60;10.03;;;;;;;;;;5039550;28;20187;-48
2022/01/25 01:00:01;;;;;;;65.47;8.93;;;;;;;;;;5031653;28;20535;-48
2022/01/25 01:02:27;;;;;;;115.00;15.13;;;;;;;;;;5030997;28;20253;-48
2022/01/25 01:04:53;;;;;;;73.37;10.00;;;;;;;;;;5028925;28;20208;-48
2022/01/25 01:07:19;;;;;;;91.30;12.13;;;;;;;;;;5035219;28;20191;-49
2022/01/25 01:09:49;;;;;;;86.73;11.70;;;;;;;;;;5031861;28;20326;-49
2022/01/25 01:12:28;;;;;;;71.50;9.73;;;;;;;;;;5032622;28;20555;-49
2022/01/25 01:15:08;;;;;;;126.90;16.73;;;;;;;;;;5030700;28;20591;-48
2022/01/25 01:28:50;;;;;;;53.40;7.57;;;;;;;;;;5035962;28;20234;-49
2022/01/25 01:29:11;;;;;;;87.97;11.83;;;;;;;;;;5034740;28;20194;-48
2022/01/25 01:31:55;;;;;;;183.40;23.27;;;;;;;;;;5028917;28;20517;-48
2022/01/25 01:42:47;;;;;;;86.37;11.60;;;;;;;;;;5000174;28;20204;-48
2022/01/25 01:45:12;;;;;;;98.23;13.10;;;;;;;;;;5028066;28;20244;-48
2022/01/25 01:47:48;;;;;;;83.20;11.10;;;;;;;;;;5032832;28;20541;-48
2022/01/25 01:50:26;;;;;;;197.47;25.27;;;;;;;;;;5030310;28;20570;-48
2022/01/25 01:52:53;;;;;;;55.80;7.73;;;;;;;;;;5033919;28;20290;-52
2022/01/25 01:55:20;;;;;;;144.33;18.33;;;;;;;;;;5030089;28;20535;-49
2022/01/25 01:57:48;;;;;;;71.17;9.70;;;;;;;;;;5032403;28;20189;-48
2022/01/25 02:00:15;;;;;;;67.37;9.17;;;;;;;;;;5038789;28;20245;-48
2022/01/25 02:02:41;;;;;;;119.23;15.33;;;;;;;;;;5031908;28;20180;-48
2022/01/25 02:05:07;;;;;;;74.40;9.93;;;;;;;;;;5032118;28;20176;-48
2022/01/25 02:07:33;;;;;;;75.10;10.07;;;;;;;;;;5030543;28;20660;-48
2022/01/25 02:09:59;;;;;;;95.07;12.47;;;;;;;;;;5029657;28;20264;-48
2022/01/25 02:12:25;;;;;;;72.17;9.67;;;;;;;;;;5030196;28;20426;-48
2022/01/25 02:14:52;;;;;;;56.67;7.73;;;;;;;;;;5029500;28;20215;-48
2022/01/25 02:23:13;;;;;;;73.77;9.73;;;;;;;;;;5028590;28;20235;-48
2022/01/25 02:25:39;;;;;;;96.17;12.60;;;;;;;;;;5029826;28;20405;-48
2022/01/25 02:28:05;;;;;;;69.40;9.17;;;;;;;;;;5036612;28;20590;-48
2022/01/25 02:30:31;;;;;;;109.77;14.20;;;;;;;;;;5036003;28;20294;-48
2022/01/25 02:32:57;;;;;;;66.87;8.87;;;;;;;;;;5037421;28;20206;-48
2022/01/25 02:35:23;;;;;;;181.70;23.03;;;;;;;;;;5029971;28;20629;-48
2022/01/25 02:37:49;;;;;;;132.80;16.87;;;;;;;;;;5038888;28;20188;-48
2022/01/25 02:40:15;;;;;;;127.37;16.20;;;;;;;;;;5033739;28;20430;-48
2022/01/25 02:42:41;;;;;;;53.13;7.33;;;;;;;;;;5042895;28;20270;-48
2022/01/25 02:45:11;;;;;;;81.00;10.73;;;;;;;;;;5035089;28;20200;-48
2022/01/25 02:50:22;;;;;;;199.07;25.27;;;;;;;;;;5029820;28;20218;-48
2022/01/25 02:52:47;;;;;;;101.03;13.13;;;;;;;;;;5038222;28;20173;-48
2022/01/25 02:55:14;;;;;;;125.80;16.30;;;;;;;;;;5037486;28;20202;-48
2022/01/25 02:57:40;;;;;;;85.97;11.27;;;;;;;;;;5035759;28;20191;-48
2022/01/25 03:00:07;;;;;;;74.33;9.93;;;;;;;;;;5033055;28;20644;-48
2022/01/25 03:02:33;;;;;;;68.90;9.30;;;;;;;;;;5035524;28;20627;-48
2022/01/25 03:04:59;;;;;;;112.77;14.40;;;;;;;;;;5033828;28;20180;-49
2022/01/25 03:07:25;;;;;;;108.43;14.00;;;;;;;;;;5039861;28;20194;-48
2022/01/25 03:09:52;;;;;;;67.67;9.03;;;;;;;;;;5035379;28;20829;-48
2022/01/25 03:12:29;;;;;;;65.37;8.73;;;;;;;;;;5033826;28;20180;-49
2022/01/25 03:18:01;;;;;;;45.37;11.20;;;;;;;;;;5021230;28;20622;-49
2022/01/25 03:20:46;;;;;;;50.73;11.53;;;;;;;;;;5024522;28;20207;-49
2022/01/25 03:23:18;;;;;;;87.03;16.67;;;;;;;;;;5025287;28;20322;-49
2022/01/25 03:25:47;;;;;;;89.17;16.77;;;;;;;;;;5008542;28;20195;-49
2022/01/25 03:28:13;;;;;;;77.07;15.07;;;;;;;;;;5016381;28;20531;-49
2022/01/25 03:30:39;;;;;;;28.00;8.47;;;;;;;;;;5014002;28;20797;-49
2022/01/25 03:33:05;;;;;;;107.00;19.07;;;;;;;;;;5011361;28;20702;-49
2022/01/25 03:35:31;;;;;;;193.07;31.30;;;;;;;;;;5003518;28;20326;-49
2022/01/25 03:37:57;;;;;;;52.00;11.73;;;;;;;;;;5011153;28;20288;-49
2022/01/25 03:40:23;;;;;;;84.97;16.70;;;;;;;;;;5009125;28;20203;-49
2022/01/25 03:42:49;;;;;;;29.60;9.07;;;;;;;;;;5014015;28;20192;-49
2022/01/25 03:45:20;;;;;;;49.33;10.93;;;;;;;;;;5017124;28;20184;-47
2022/01/25 03:47:59;;;;;;;92.97;16.40;;;;;;;;;;5014308;28;20262;-47
2022/01/25 03:50:26;;;;;;;69.63;14.83;;;;;;;;;;5004462;28;20628;-47
2022/01/25 03:52:53;;;;;;;47.30;11.30;;;;;;;;;;5014767;28;20553;-48
2022/01/25 03:55:19;;;;;;;108.50;19.90;;;;;;;;;;5011150;28;20529;-47
2022/01/25 03:57:45;;;;;;;57.23;13.10;;;;;;;;;;5013580;28;20184;-47
2022/01/25 04:00:11;;;;;;;75.00;15.67;;;;;;;;;;5008296;28;20730;-47
2022/01/25 04:02:46;;;;;;;66.17;14.40;;;;;;;;;;5013311;28;20203;-47
2022/01/25 04:05:20;;;;;;;51.77;12.40;;;;;;;;;;5007694;28;20675;-47
2022/01/25 04:07:50;;;;;;;38.83;9.90;;;;;;;;;;5013025;28;20421;-47
2022/01/25 04:10:17;;;;;;;106.67;19.77;;;;;;;;;;5012766;28;20197;-47
2022/01/25 04:12:43;;;;;;;68.83;14.03;;;;;;;;;;5010402;28;20604;-47
2022/01/25 04:15:10;;;;;;;57.27;12.07;;;;;;;;;;5011505;28;20253;-47
2022/01/25 04:17:36;;;;;;;71.03;14.87;;;;;;;;;;5014899;28;20539;-47
2022/01/25 04:20:28;;;;;;;129.77;22.50;;;;;;;;;;5009444;28;20312;-47
2022/01/25 04:25:33;;;;;;;60.00;13.23;;;;;;;;;;5010525;28;20195;-47
2022/01/25 04:27:59;;;;;;;46.70;11.17;;;;;;;;;;5016481;28;20268;-47
2022/01/25 04:30:25;;;;;;;40.20;10.30;;;;;;;;;;5016332;28;20258;-47
2022/01/25 04:33:40;;;;;;;82.83;16.43;;;;;;;;;;5010963;28;20264;-47
2022/01/25 04:35:56;;;;;;;46.70;11.63;;;;;;;;;;4999207;28;20701;-47
2022/01/25 04:49:25;;;;;;;73.63;13.80;;;;;;;;;;5006323;28;20230;-47
2022/01/25 04:52:00;;;;;;;46.93;10.83;;;;;;;;;;5011773;28;20212;-47
2022/01/25 05:02:18;;;;;;;64.93;13.40;;;;;;;;;;5010969;28;20675;-47
2022/01/25 05:04:57;;;;;;;49.50;10.63;;;;;;;;;;5006679;28;20230;-47
2022/01/25 05:07:37;;;;;;;78.07;15.63;;;;;;;;;;5014365;28;20191;-47
2022/01/25 05:10:04;;;;;;;111.70;19.47;;;;;;;;;;5010459;28;20216;-47
2022/01/25 05:12:38;;;;;;;76.77;14.83;;;;;;;;;;5008646;28;20245;-47
2022/01/25 05:15:39;;;;;;;99.77;18.70;;;;;;;;;;5003527;28;20343;-47
2022/01/25 05:18:06;;;;;;;63.00;13.47;;;;;;;;;;5011194;28;20278;-47
2022/01/25 05:23:17;;;;;;;52.00;11.47;;;;;;;;;;5010250;28;20218;-47
2022/01/25 05:25:43;;;;;;;109.33;19.07;;;;;;;;;;5001710;28;20188;-47
2022/01/25 05:28:09;;;;;;;62.43;12.97;;;;;;;;;;5011089;28;20272;-47
2022/01/25 05:30:35;;;;;;;47.53;10.77;;;;;;;;;;5012640;28;20230;-47
2022/01/25 05:33:00;;;;;;;82.47;15.80;;;;;;;;;;5007239;28;20274;-47
2022/01/25 05:35:26;;;;;;;45.90;10.70;;;;;;;;;;5012073;28;20185;-47
2022/01/25 05:37:52;;;;;;;94.43;17.80;;;;;;;;;;5011723;28;20359;-47
2022/01/25 05:40:28;;;;;;;89.57;16.90;;;;;;;;;;5007255;28;20188;-47
2022/01/25 05:48:10;;;;;;;106.20;19.77;;;;;;;;;;5006646;28;20840;-47
2022/01/25 05:50:36;;;;;;;54.17;12.63;;;;;;;;;;5006952;28;20291;-47
2022/01/25 05:53:02;;;;;;;40.50;9.13;;;;;;;;;;5011115;28;20204;-47
2022/01/25 05:55:28;;;;;;;82.47;16.30;;;;;;;;;;5009011;28;20239;-47
2022/01/25 05:57:54;;;;;;;62.53;13.70;;;;;;;;;;5006728;28;20181;-49
2022/01/25 06:00:20;;;;;;;102.50;17.97;;;;;;;;;;5011382;28;20191;-49
2022/01/25 06:02:47;;;;;;;51.30;11.30;;;;;;;;;;5007035;28;20578;-47
2022/01/25 06:05:13;;;;;;;65.13;12.83;;;;;;;;;;5004489;28;20392;-49
2022/01/25 06:07:39;;;;;;;74.17;13.73;;;;;;;;;;5014975;28;20198;-50
2022/01/25 06:10:06;;;;;;;100.57;17.77;;;;;;;;;;5007302;28;20208;-47
2022/01/25 06:12:32;;;;;;;109.77;19.43;;;;;;;;;;5006233;28;20521;-47
2022/01/25 06:14:58;;;;;;;105.60;19.53;;;;;;;;;;5004732;28;20207;-47
2022/01/25 06:17:23;;;;;;;71.53;14.13;;;;;;;;;;5008234;28;20176;-47
2022/01/25 06:19:49;;;;;;;114.93;19.87;;;;;;;;;;5011369;28;20184;-47
2022/01/25 06:22:16;;;;;;;50.77;12.07;;;;;;;;;;5006748;28;20279;-47
2022/01/25 06:24:41;;;;;;;58.07;12.43;;;;;;;;;;5015881;28;20211;-47
2022/01/25 06:27:08;;;;;;;54.57;12.37;;;;;;;;;;5005461;28;20593;-47
2022/01/25 06:29:34;;;;;;;36.90;9.53;;;;;;;;;;5013981;28;20192;-47
2022/01/25 06:32:00;;;;;;;48.67;11.33;;;;;;;;;;5012891;28;20200;-47
2022/01/25 06:34:26;;;;;;;85.67;16.90;;;;;;;;;;5005233;28;20208;-47
2022/01/25 06:36:52;;;;;;;79.73;15.83;;;;;;;;;;5014935;28;20678;-47
2022/01/25 06:39:18;;;;;;;56.30;11.93;;;;;;;;;;5009137;28;20195;-47
2022/01/25 06:41:44;;;;;;;68.10;13.60;;;;;;;;;;5009445;28;20216;-47
2022/01/25 06:44:10;;;;;;;63.47;13.03;;;;;;;;;;5008610;28;20243;-47
2022/01/25 06:46:36;;;;;;;100.17;17.97;;;;;;;;;;5009812;28;20275;-47
2022/01/25 06:49:02;;;;;;;66.83;13.80;;;;;;;;;;5009338;28;20198;-47
2022/01/25 06:51:29;;;;;;;102.33;17.97;;;;;;;;;;4996819;28;20188;-47
2022/01/25 06:53:55;;;;;;;35.00;9.87;;;;;;;;;;5009429;28;20366;-47
2022/01/25 06:56:21;;;;;;;18.37;7.70;;;;;;;;;;5005796;28;20687;-47
2022/01/25 06:58:47;;;;;;;64.63;13.77;;;;;;;;;;5009019;28;20317;-47
2022/01/25 07:01:13;;;;;;;58.10;13.03;;;;;;;;;;5009943;28;20191;-47
2022/01/25 07:03:39;;;;;;;111.30;19.33;;;;;;;;;;5003225;28;20386;-47
2022/01/25 07:06:05;;;;;;;111.47;19.43;;;;;;;;;;4985423;28;20195;-46
2022/01/25 07:08:31;;;;;;;134.30;23.10;;;;;;;;;;5004392;28;20291;-46
2022/01/25 07:10:57;;;;;;;106.73;19.87;;;;;;;;;;5007476;28;20230;-46
2022/01/25 07:13:24;;;;;;;81.40;16.40;;;;;;;;;;5013876;28;20200;-46
2022/01/25 07:15:50;;;;;;;30.83;9.43;;;;;;;;;;5010496;28;20286;-46
2022/01/25 07:18:16;;;;;;;105.73;19.63;;;;;;;;;;4999609;28;20196;-47
2022/01/25 07:20:42;;;;;;;77.40;14.87;;;;;;;;;;5013696;28;20280;-46
2022/01/25 07:23:08;;;;;;;75.43;14.30;;;;;;;;;;5013535;28;20274;-46
2022/01/25 07:25:34;;;;;;;107.83;19.03;;;;;;;;;;5008802;28;20200;-46
2022/01/25 07:28:00;;;;;;;106.03;18.30;;;;;;;;;;5011517;28;20192;-47
2022/01/25 07:30:26;;;;;;;76.10;15.97;;;;;;;;;;5006252;28;20226;-46
2022/01/25 07:32:52;;;;;;;66.27;14.17;;;;;;;;;;5013404;28;20305;-47
2022/01/25 07:35:17;;;;;;;69.73;14.10;;;;;;;;;;5014461;28;20528;-47
2022/01/25 07:37:43;;;;;;;82.17;15.63;;;;;;;;;;5003623;28;20229;-47
2022/01/25 07:40:11;;;;;;;155.27;25.93;;;;;;;;;;5004036;28;20199;-47
2022/01/25 07:42:39;;;;;;;99.97;18.13;;;;;;;;;;4996447;28;20939;-46
2022/01/25 07:45:09;;;;;;;113.63;19.37;;;;;;;;;;5004170;28;20193;-46
2022/01/25 07:47:35;;;;;;;69.33;14.50;;;;;;;;;;5006617;28;20200;-46
2022/01/25 07:50:01;;;;;;;117.43;20.70;;;;;;;;;;5007742;28;20213;-47
2022/01/25 07:52:27;;;;;;;136.17;22.73;;;;;;;;;;4996684;28;20197;-47
2022/01/25 07:54:53;;;;;;;178.90;27.60;;;;;;;;;;5002840;28;20286;-47
2022/01/25 07:57:19;;;;;;;100.93;17.87;;;;;;;;;;5001051;28;20596;-47
2022/01/25 07:59:45;;;;;;;221.77;35.03;;;;;;;;;;4971176;28;20259;-46
2022/01/25 08:02:15;;;;;;;58.13;11.53;;;;;;;;;;5011091;28;20525;-47
2022/01/25 08:04:41;;;;;;;54.47;11.63;;;;;;;;;;5007553;28;20323;-47
2022/01/25 08:07:07;;;;;;;123.47;21.20;;;;;;;;;;4999269;28;20315;-47
2022/01/25 08:09:33;;;;;;;147.33;23.97;;;;;;;;;;5001111;28;20200;-46
2022/01/25 08:11:58;;;;;;;113.80;18.83;;;;;;;;;;4995475;28;20204;-46
2022/01/25 08:14:24;;;;;;;117.20;20.40;;;;;;;;;;5003996;28;20290;-46
2022/01/25 08:16:51;;;;;;;125.73;22.33;;;;;;;;;;4998074;28;20188;-47
2022/01/25 08:19:18;;;;;;;125.03;21.30;;;;;;;;;;4998452;28;20197;-46
2022/01/25 08:21:44;;;;;;;73.30;13.97;;;;;;;;;;5004528;28;20271;-46
2022/01/25 08:24:11;;;;;;;154.00;25.30;;;;;;;;;;5003957;28;20299;-47
2022/01/25 08:26:37;;;;;;;55.33;11.90;;;;;;;;;;5007166;28;20192;-47
2022/01/25 08:29:04;;;;;;;59.10;12.13;;;;;;;;;;5012483;28;20223;-47
2022/01/25 08:31:30;;;;;;;52.57;11.60;;;;;;;;;;5004938;28;20189;-46
2022/01/25 08:33:56;;;;;;;44.63;10.40;;;;;;;;;;5013207;28;20208;-46
2022/01/25 08:36:22;;;;;;;104.40;18.30;;;;;;;;;;4991196;28;20196;-46
2022/01/25 08:38:48;;;;;;;88.83;15.77;;;;;;;;;;5002847;28;20184;-46
2022/01/25 08:41:15;;;;;;;118.77;21.20;;;;;;;;;;4990283;28;20188;-46
2022/01/25 08:43:41;;;;;;;167.47;27.23;;;;;;;;;;4999854;28;21430;-46
2022/01/25 08:46:07;;;;;;;162.07;25.27;;;;;;;;;;4985601;28;20269;-46
2022/01/25 08:48:33;;;;;;;170.83;28.30;;;;;;;;;;4996348;28;20188;-47
2022/01/25 08:51:01;;;;;;;202.20;33.37;;;;;;;;;;4986562;28;20622;-47
2022/01/25 08:53:26;;;;;;;133.77;22.73;;;;;;;;;;4993794;28;20680;-46
2022/01/25 08:55:52;;;;;;;109.43;19.43;;;;;;;;;;5003205;28;20199;-46
2022/01/25 08:58:18;;;;;;;110.50;19.63;;;;;;;;;;5003208;28;20514;-47
2022/01/25 09:00:44;;;;;;;58.27;12.80;;;;;;;;;;4998020;28;20237;-46
2022/01/25 09:03:11;;;;;;;92.50;15.87;;;;;;;;;;5003361;28;20223;-47
2022/01/25 09:05:37;;;;;;;233.33;36.20;;;;;;;;;;4996083;28;20673;-47
2022/01/25 09:08:05;;;;;;;58.07;12.93;;;;;;;;;;5012784;28;20196;-46
2022/01/25 09:10:31;;;;;;;213.60;33.97;;;;;;;;;;4999902;28;20224;-47
2022/01/25 09:12:57;;;;;;;122.53;20.97;;;;;;;;;;4991255;28;20250;-47
2022/01/25 09:15:23;;;;;;;108.93;13.30;;;;;;;;;;5028285;23;20224;-47
2022/01/25 09:17:50;;;;;;;176.80;21.40;;;;;;;;;;5028167;28;20180;-48
2022/01/25 09:20:16;;;;;;;138.50;17.10;;;;;;;;;;5034269;28;20273;-48
2022/01/25 09:22:42;;;;;;;122.27;15.07;;;;;;;;;;5034623;28;21589;-48
2022/01/25 09:25:09;;;;;;;216.70;26.53;;;;;;;;;;5023957;28;20558;-48
2022/01/25 09:27:35;;;;;;;112.73;14.13;;;;;;;;;;5023928;28;20218;-48
2022/01/25 09:30:01;;;;;;;151.83;18.77;;;;;;;;;;5029970;28;20204;-48
2022/01/25 09:32:27;;;;;;;152.73;19.00;;;;;;;;;;5018685;28;20680;-48
2022/01/25 09:34:53;;;;;;;159.97;19.80;;;;;;;;;;5026108;28;20204;-48
2022/01/25 09:37:19;;;;;;;112.13;14.07;;;;;;;;;;5023461;28;20355;-47
2022/01/25 09:39:45;;;;;;;140.87;17.57;;;;;;;;;;5025303;28;20205;-48
2022/01/25 09:42:11;;;;;;;170.90;21.00;;;;;;;;;;5024042;28;21128;-47
2022/01/25 09:44:38;;;;;;;105.87;13.37;;;;;;;;;;5031027;28;20207;-48
2022/01/25 09:47:05;;;;;;;155.13;19.40;;;;;;;;;;5027285;28;20188;-47
2022/01/25 09:49:31;;;;;;;152.40;19.40;;;;;;;;;;5027215;28;20208;-47
2022/01/25 09:52:01;;;;;;;134.50;16.83;;;;;;;;;;5025755;28;20643;-47
2022/01/25 09:54:27;;;;;;;107.63;13.70;;;;;;;;;;5035391;28;20610;-51
2022/01/25 09:56:53;;;;;;;71.50;9.17;;;;;;;;;;5046823;28;20188;-45
2022/01/25 09:59:19;;;;;;;114.40;14.20;;;;;;;;;;5050314;28;20221;-46
2022/01/25 10:01:45;;;;;;;72.00;9.30;;;;;;;;;;5049606;28;20203;-46
2022/01/25 10:04:32;;;;;;;54.23;7.13;;;;;;;;;;5049733;28;20211;-46
2022/01/25 10:06:59;;;;;;;113.13;14.10;;;;;;;;;;5050018;28;20192;-46
2022/01/25 10:09:26;;;;;;;76.83;9.93;;;;;;;;;;5049832;28;20225;-46
2022/01/25 10:11:52;;;;;;;62.83;8.10;;;;;;;;;;5050209;28;20535;-45
2022/01/25 10:14:22;;;;;;;66.60;8.57;;;;;;;;;;5049177;28;20213;-46
2022/01/25 10:16:52;;;;;;;62.90;8.03;;;;;;;;;;5050236;28;20164;-46
2022/01/25 10:19:22;;;;;;;77.00;9.70;;;;;;;;;;5049958;28;20275;-46
2022/01/25 10:21:51;;;;;;;83.73;10.70;;;;;;;;;;5049680;28;20175;-46
2022/01/25 10:24:22;;;;;;;62.57;8.23;;;;;;;;;;5050182;28;20257;-46
2022/01/25 10:26:48;;;;;;;78.13;10.13;;;;;;;;;;5049399;28;20229;-46
2022/01/25 10:29:15;;;;;;;66.10;8.67;;;;;;;;;;5050015;28;20263;-46
2022/01/25 10:31:49;;;;;;;75.87;9.67;;;;;;;;;;5049751;28;20172;-46
2022/01/25 10:34:20;;;;;;;65.17;8.50;;;;;;;;;;5049275;28;20218;-46
2022/01/25 10:36:48;;;;;;;72.20;9.50;;;;;;;;;;5049679;28;20309;-45
2022/01/25 10:39:29;;;;;;;73.07;9.40;;;;;;;;;;5049294;28;20176;-45
2022/01/25 10:42:02;;;;;;;74.97;9.67;;;;;;;;;;5049883;28;20197;-45
2022/01/25 10:44:44;;;;;;;79.73;10.50;;;;;;;;;;5053527;28;20742;-45
2022/01/25 10:47:10;;;;;;;80.43;10.33;;;;;;;;;;5053263;28;20266;-45
2022/01/25 10:49:43;;;;;;;52.40;6.80;;;;;;;;;;5053664;28;20281;-46
2022/01/25 10:52:09;;;;;;;85.80;10.93;;;;;;;;;;5052794;28;20160;-46
2022/01/25 10:54:38;;;;;;;69.30;9.07;;;;;;;;;;5053240;28;20198;-45
2022/01/25 10:57:04;;;;;;;98.67;12.37;;;;;;;;;;5053151;28;20243;-46
2022/01/25 10:59:32;;;;;;;47.72;7.35;;;;;;;;;;5052312;28;20411;-46
2022/01/25 11:02:00;;;;;;;50.43;7.27;;;;;;;;;;5053564;28;20523;-46
2022/01/25 11:04:32;;;;;;;78.40;10.47;;;;;;;;;;5052683;28;20687;-46
2022/01/25 11:07:03;;;;;;;86.60;11.27;;;;;;;;;;5053070;28;20168;-46
2022/01/25 11:09:35;;;;;;;83.50;10.87;;;;;;;;;;5052846;28;20282;-47
2022/01/25 11:12:02;;;;;;;82.30;10.63;;;;;;;;;;5052921;28;20167;-47
2022/01/25 11:17:13;;;;;;;47.00;6.33;;;;;;;;;;5052668;28;20555;-46
2022/01/25 11:19:39;;;;;;;58.60;7.93;;;;;;;;;;5052784;28;20179;-46
2022/01/25 11:22:05;;;;;;;84.40;10.80;;;;;;;;;;5052868;28;20171;-46
2022/01/25 11:24:32;;;;;;;85.10;11.10;;;;;;;;;;5051789;28;20668;-46
2022/01/25 11:27:00;;;;;;;71.33;9.33;;;;;;;;;;5052856;28;20479;-46
2022/01/25 11:29:27;;;;;;;64.60;8.63;;;;;;;;;;5052501;28;20207;-46
2022/01/25 11:32:00;;;;;;;67.93;9.27;;;;;;;;;;5052821;28;20535;-46
2022/01/25 11:34:27;;;;;;;77.57;10.07;;;;;;;;;;5052741;28;20203;-46
2022/01/25 11:36:58;;;;;;;68.67;9.10;;;;;;;;;;5052045;28;20188;-46
2022/01/25 11:39:25;;;;;;;63.07;8.30;;;;;;;;;;5052323;28;20168;-46
2022/01/25 11:41:51;;;;;;;58.90;7.80;;;;;;;;;;5052640;28;20620;-45
2022/01/25 11:44:21;;;;;;;107.70;13.70;;;;;;;;;;5052163;28;20244;-46
2022/01/25 11:46:48;;;;;;;80.20;10.37;;;;;;;;;;5052158;28;20643;-46
2022/01/25 11:49:17;;;;;;;57.33;7.60;;;;;;;;;;5051798;28;20186;-46
2022/01/25 11:51:43;;;;;;;71.83;9.30;;;;;;;;;;5052616;28;20702;-46
2022/01/25 11:54:09;;;;;;;89.13;11.53;;;;;;;;;;5051059;28;20564;-45
2022/01/25 11:56:36;;;;;;;77.30;10.07;;;;;;;;;;5052393;28;20172;-46
2022/01/25 11:59:02;;;;;;;70.53;9.13;;;;;;;;;;5052571;28;20219;-46
2022/01/25 12:01:29;;;;;;;84.27;10.90;;;;;;;;;;5051447;28;20172;-46
2022/01/25 12:03:59;;;;;;;76.00;9.90;;;;;;;;;;5051610;28;20267;-46
2022/01/25 12:06:31;;;;;;;72.97;9.47;;;;;;;;;;5050644;28;20172;-46
2022/01/25 12:11:28;;;;;;;71.83;9.37;;;;;;;;;;5052154;28;20302;-46
2022/01/25 12:14:11;;;;;;;55.63;7.43;;;;;;;;;;5051225;28;20199;-46
2022/01/25 12:16:44;;;;;;;47.97;6.40;;;;;;;;;;5051684;28;20176;-47
2022/01/25 12:19:11;;;;;;;123.13;15.80;;;;;;;;;;5037145;28;20238;-48
2022/01/25 12:21:51;;;;;;;324.20;42.77;;;;;;;;;;5017758;28;20876;-47
2022/01/25 12:24:24;;;;;;;84.07;11.23;;;;;;;;;;5018216;28;20564;-48
2022/01/25 12:29:57;;;;;;;154.57;19.80;;;;;;;;;;5012142;28;20303;-48
2022/01/25 12:32:24;;;;;;;154.07;19.47;;;;;;;;;;5029942;28;20178;-48
2022/01/25 12:34:57;;;;;;;210.20;26.67;;;;;;;;;;5024572;28;20209;-47
2022/01/25 12:37:41;;;;;;;107.27;13.87;;;;;;;;;;5024425;28;20180;-48
2022/01/25 12:40:25;;;;;;;194.53;23.67;;;;;;;;;;5031288;28;20750;-48
2022/01/25 12:42:55;;;;;;;120.80;15.30;;;;;;;;;;5028177;28;20688;-48
2022/01/25 12:45:23;;;;;;;131.70;16.97;;;;;;;;;;5026984;28;20200;-48
2022/01/25 12:47:51;;;;;;;132.50;16.77;;;;;;;;;;5028633;28;20180;-48
2022/01/25 12:50:17;;;;;;;100.53;13.07;;;;;;;;;;5032225;28;20730;-48
2022/01/25 12:52:45;;;;;;;136.70;16.93;;;;;;;;;;5031014;28;20183;-48
2022/01/25 12:55:11;;;;;;;181.53;21.83;;;;;;;;;;5023553;28;20923;-47
2022/01/25 12:57:37;;;;;;;193.67;24.07;;;;;;;;;;5029378;28;20184;-47
2022/01/25 13:00:04;;;;;;;156.93;20.30;;;;;;;;;;5017441;28;20582;-48
2022/01/25 13:02:30;;;;;;;97.27;12.47;;;;;;;;;;5030598;28;20246;-49
2022/01/25 13:04:56;;;;;;;215.73;28.70;;;;;;;;;;5034828;28;20279;-48
2022/01/25 13:07:22;;;;;;;121.03;15.27;;;;;;;;;;5025475;28;20248;-48
2022/01/25 13:09:53;;;;;;;160.33;20.80;;;;;;;;;;5033195;28;20216;-47
2022/01/25 13:12:28;;;;;;;107.80;13.57;;;;;;;;;;5029974;28;20182;-47
2022/01/25 13:15:16;;;;;;;100.67;12.83;;;;;;;;;;5032186;28;20219;-47
2022/01/25 13:17:42;;;;;;;162.90;20.77;;;;;;;;;;5019252;28;20187;-47
2022/01/25 13:20:08;;;;;;;155.50;19.67;;;;;;;;;;5009595;28;20184;-49
2022/01/25 13:22:39;;;;;;;175.73;22.03;;;;;;;;;;5020100;28;20548;-49
2022/01/25 13:25:31;;;;;;;147.87;18.20;;;;;;;;;;5022231;28;20232;-48
2022/01/25 13:28:00;;;;;;;90.63;11.30;;;;;;;;;;5023252;28;20210;-48
2022/01/25 13:30:41;;;;;;;112.13;14.00;;;;;;;;;;5027353;28;20315;-49
2022/01/25 13:33:08;;;;;;;121.77;15.20;;;;;;;;;;5031598;28;20238;-48
2022/01/25 13:35:37;;;;;;;391.53;51.97;;;;;;;;;;5013245;28;21205;-48
2022/01/25 13:38:05;;;;;;;254.30;32.03;;;;;;;;;;5006386;28;31857;-49
2022/01/25 13:40:56;;;;;;;197.97;24.83;;;;;;;;;;5016125;28;20628;-49
2022/01/25 13:45:51;;;;;;;134.47;16.50;;;;;;;;;;5027196;28;20192;-50
2022/01/25 13:48:20;;;;;;;134.53;16.43;;;;;;;;;;5018169;28;20183;-49
2022/01/25 13:50:46;;;;;;;204.70;26.60;;;;;;;;;;5014016;28;20218;-48
2022/01/25 13:53:12;;;;;;;225.80;27.80;;;;;;;;;;5021998;28;20212;-48
2022/01/25 13:55:38;;;;;;;216.67;26.53;;;;;;;;;;5025657;28;20208;-49
2022/01/25 13:58:18;;;;;;;501.50;69.23;;;;;;;;;;4991515;28;20180;-51
2022/01/25 14:00:44;;;;;;;144.80;18.23;;;;;;;;;;5018454;28;20186;-48
2022/01/25 14:03:10;;;;;;;253.00;32.17;;;;;;;;;;5028035;28;20207;-49
2022/01/25 14:05:37;;;;;;;124.73;15.70;;;;;;;;;;5019194;28;20184;-49
2022/01/25 14:08:03;;;;;;;121.00;14.83;;;;;;;;;;5019295;28;20295;-48
2022/01/25 14:10:29;;;;;;;237.13;28.77;;;;;;;;;;5019897;28;21124;-48
2022/01/25 14:21:41;;;;;;;155.93;18.67;;;;;;;;;;5030812;28;20280;-48
2022/01/25 14:24:07;;;;;;;229.10;27.87;;;;;;;;;;5024243;28;20219;-49
2022/01/25 14:26:34;;;;;;;195.47;23.07;;;;;;;;;;5022661;28;20283;-48
2022/01/25 14:29:12;;;;;;;151.40;18.03;;;;;;;;;;5036539;28;20582;-48
2022/01/25 14:31:41;;;;;;;205.63;24.43;;;;;;;;;;5030779;28;20551;-47
2022/01/25 14:34:09;;;;;;;277.37;35.30;;;;;;;;;;5030381;28;23891;-49
2022/01/25 14:36:35;;;;;;;157.60;19.40;;;;;;;;;;5022425;28;20176;-48
2022/01/25 14:39:02;;;;;;;194.37;24.10;;;;;;;;;;5026678;28;20192;-48
2022/01/25 14:41:31;;;;;;;213.27;26.03;;;;;;;;;;5020319;28;20198;-48
2022/01/25 14:44:01;;;;;;;277.43;36.67;;;;;;;;;;5021750;28;20207;-49
2022/01/25 14:46:28;;;;;;;171.43;21.40;;;;;;;;;;5021923;28;20290;-48
2022/01/25 14:49:03;;;;;;;192.73;23.73;;;;;;;;;;5025673;28;20224;-48
2022/01/25 14:51:33;;;;;;;222.67;28.77;;;;;;;;;;5022761;28;20495;-49
2022/01/25 14:53:59;;;;;;;257.47;32.87;;;;;;;;;;5016288;28;20219;-49
2022/01/25 14:56:29;;;;;;;149.17;18.83;;;;;;;;;;5022924;28;20176;-47
2022/01/25 15:01:21;;;;;;;128.87;16.20;;;;;;;;;;5023317;28;20195;-48
2022/01/25 15:03:49;;;;;;;157.83;19.83;;;;;;;;;;5033999;28;20226;-49
2022/01/25 15:06:17;;;;;;;187.23;24.13;;;;;;;;;;5018935;28;20636;-48
2022/01/25 15:08:56;;;;;;;164.53;20.30;;;;;;;;;;5037671;28;20201;-49
2022/01/25 15:11:23;;;;;;;150.87;18.83;;;;;;;;;;5030010;28;20302;-48
2022/01/25 15:13:57;;;;;;;174.30;21.43;;;;;;;;;;5032117;28;20287;-49
2022/01/25 15:16:23;;;;;;;80.90;15.87;;;;;;;;;;5034299;23;20317;-69
2022/01/25 15:18:49;;;;;;;53.77;12.27;;;;;;;;;;5018266;28;20645;-68
2022/01/25 15:21:16;;;;;;;72.37;14.73;;;;;;;;;;5009553;28;20283;-68
2022/01/25 15:23:46;;;;;;;91.20;17.57;;;;;;;;;;5014704;28;20258;-68
2022/01/25 15:26:16;;;;;;;114.67;19.47;;;;;;;;;;4999782;28;20387;-68
2022/01/25 15:28:44;;;;;;;77.43;15.17;;;;;;;;;;5018728;28;20669;-68
2022/01/25 15:31:14;;;;;;;75.37;14.47;;;;;;;;;;5010323;28;20216;-67
2022/01/25 15:33:41;;;;;;;99.80;18.33;;;;;;;;;;5014569;28;20325;-67
2022/01/25 15:36:07;;;;;;;59.23;12.60;;;;;;;;;;5013352;28;20272;-67
2022/01/25 15:38:37;;;;;;;95.50;16.90;;;;;;;;;;5021364;28;20165;-68
2022/01/25 15:41:11;;;;;;;65.30;13.53;;;;;;;;;;5009492;28;20260;-67
2022/01/25 15:43:47;;;;;;;48.10;11.60;;;;;;;;;;5021945;28;20179;-68
2022/01/25 15:46:21;;;;;;;68.07;14.20;;;;;;;;;;5022838;28;20345;-68
2022/01/25 15:48:47;;;;;;;63.70;13.33;;;;;;;;;;5016879;28;20806;-68
2022/01/25 15:51:12;;;;;;;55.77;12.47;;;;;;;;;;5015556;28;20220;-68
2022/01/25 15:53:38;;;;;;;46.80;11.20;;;;;;;;;;5018496;28;20260;-69
2022/01/25 15:56:04;;;;;;;63.33;13.20;;;;;;;;;;5003592;28;20213;-68
2022/01/25 15:58:30;;;;;;;33.07;8.90;;;;;;;;;;5019082;28;20241;-68
2022/01/25 16:00:56;;;;;;;118.40;20.13;;;;;;;;;;5011383;28;20688;-75
2022/01/25 16:03:23;;;;;;;105.70;18.73;;;;;;;;;;5012781;28;20837;-69